createdAt,value
2022-12-28T00:00:01.274Z,31.0750
2022-12-28T00:00:12.516Z,31.0530
2022-12-28T00:00:23.701Z,31.0300
2022-12-28T00:00:34.810Z,31.0360
2022-12-28T00:00:45.989Z,31.0360
2022-12-28T00:00:57.031Z,31.0300
2022-12-28T00:01:08.134Z,31.0140
2022-12-28T00:01:19.175Z,31.0030
2022-12-28T00:01:30.335Z,30.9990
2022-12-28T00:01:41.483Z,30.9990
2022-12-28T00:01:52.600Z,30.9990
2022-12-28T00:02:03.705Z,31.0150
2022-12-28T00:02:14.787Z,30.9990
2022-12-28T00:02:25.888Z,30.9830
2022-12-28T00:02:37.020Z,30.9830
2022-12-28T00:02:48.246Z,30.9770
2022-12-28T00:02:59.321Z,30.9880
2022-12-28T00:03:10.442Z,30.9900
2022-12-28T00:03:21.705Z,31.0020
2022-12-28T00:03:32.752Z,30.9790
2022-12-28T00:03:43.819Z,30.9350
2022-12-28T00:03:54.895Z,30.9510
2022-12-28T00:04:05.969Z,30.9620
2022-12-28T00:04:17.027Z,30.9790
2022-12-28T00:04:28.073Z,30.9620
2022-12-28T00:04:39.156Z,30.9240
2022-12-28T00:04:50.238Z,30.9310
2022-12-28T00:05:01.300Z,30.8980
2022-12-28T00:05:12.360Z,30.8980
2022-12-28T00:05:23.413Z,30.9000
2022-12-28T00:05:34.473Z,30.8890
2022-12-28T00:05:45.540Z,30.8780
2022-12-28T00:05:56.615Z,30.8890
2022-12-28T00:06:07.663Z,30.8840
2022-12-28T00:06:18.765Z,30.8780
2022-12-28T00:06:29.821Z,30.8620
2022-12-28T00:06:40.898Z,30.8670
2022-12-28T00:06:51.941Z,30.8440
2022-12-28T00:07:03.017Z,30.8620
2022-12-28T00:07:14.109Z,30.8560
2022-12-28T00:07:25.173Z,30.8620
2022-12-28T00:07:36.236Z,30.8670
2022-12-28T00:07:47.278Z,30.8670
2022-12-28T00:07:58.350Z,30.8590
2022-12-28T00:08:09.417Z,30.8700
2022-12-28T00:08:20.472Z,30.8850
2022-12-28T00:08:31.591Z,30.8950
2022-12-28T00:08:42.885Z,30.9130
2022-12-28T00:08:53.978Z,30.9160
2022-12-28T00:09:05.033Z,30.9100
2022-12-28T00:09:16.096Z,30.9210
2022-12-28T00:09:27.171Z,30.9160
2022-12-28T00:09:38.214Z,30.9160
2022-12-28T00:09:49.287Z,30.9320
2022-12-28T00:10:00.358Z,30.9270
2022-12-28T00:10:11.422Z,30.9450
2022-12-28T00:11:06.654Z,31.1950
2022-12-28T00:11:07.621Z,30.9500
2022-12-28T00:11:09.045Z,31.1080
2022-12-28T00:11:20.426Z,31.2480
2022-12-28T00:11:31.268Z,31.2580
2022-12-28T00:11:42.521Z,31.1850
2022-12-28T00:11:53.592Z,31.0930
2022-12-28T00:12:04.664Z,31.0260
2022-12-28T00:12:15.748Z,30.9950
2022-12-28T00:12:26.810Z,30.9670
2022-12-28T00:12:37.917Z,30.9460
2022-12-28T00:12:48.944Z,30.9110
2022-12-28T00:13:00.020Z,30.8900
2022-12-28T00:13:11.074Z,30.8790
2022-12-28T00:13:22.143Z,30.8620
2022-12-28T00:13:33.241Z,30.8570
2022-12-28T00:13:44.396Z,30.8730
2022-12-28T00:13:55.442Z,30.8570
2022-12-28T00:14:06.544Z,30.8620
2022-12-28T00:14:17.642Z,30.8490
2022-12-28T00:14:28.777Z,30.8380
2022-12-28T00:14:39.835Z,30.8220
2022-12-28T00:14:50.919Z,30.8160
2022-12-28T00:15:01.992Z,30.8110
2022-12-28T00:15:13.038Z,30.8050
2022-12-28T00:15:24.104Z,30.7960
2022-12-28T00:15:35.162Z,30.7960
2022-12-28T00:15:46.232Z,30.7850
2022-12-28T00:15:57.362Z,30.7960
2022-12-28T00:16:08.427Z,30.7900
2022-12-28T00:16:19.520Z,30.7790
2022-12-28T00:16:30.696Z,30.7740
2022-12-28T00:16:41.852Z,30.7450
2022-12-28T00:16:52.951Z,30.7340
2022-12-28T00:17:04.056Z,30.7240
2022-12-28T00:17:15.090Z,30.7170
2022-12-28T00:17:26.149Z,30.7110
2022-12-28T00:17:37.194Z,30.7110
2022-12-28T00:17:48.269Z,30.6720
2022-12-28T00:17:59.337Z,30.6770
2022-12-28T00:18:10.409Z,30.6660
2022-12-28T00:18:21.852Z,30.6770
2022-12-28T00:18:32.929Z,30.6440
2022-12-28T00:18:44.062Z,30.6340
2022-12-28T00:18:55.133Z,30.6230
2022-12-28T00:19:06.182Z,30.6050
2022-12-28T00:19:17.237Z,30.5940
2022-12-28T00:19:28.307Z,30.6050
2022-12-28T00:19:39.380Z,30.6230
2022-12-28T00:19:50.462Z,30.6050
2022-12-28T00:20:01.544Z,30.6100
2022-12-28T00:20:12.616Z,30.6050
2022-12-28T00:20:23.702Z,30.5980
2022-12-28T00:20:34.768Z,30.5820
2022-12-28T00:20:45.836Z,30.5820
2022-12-28T00:20:56.867Z,30.5710
2022-12-28T00:21:07.924Z,30.5710
2022-12-28T00:21:18.960Z,30.5530
2022-12-28T00:21:30.067Z,30.5620
2022-12-28T00:21:41.133Z,30.5530
2022-12-28T00:21:52.210Z,30.5110
2022-12-28T00:22:03.267Z,30.5060
2022-12-28T00:22:14.320Z,30.5060
2022-12-28T00:22:25.407Z,30.5000
2022-12-28T00:22:36.457Z,30.4680
2022-12-28T00:22:47.532Z,30.4340
2022-12-28T00:22:58.611Z,30.4120
2022-12-28T00:23:09.710Z,30.4120
2022-12-28T00:23:20.797Z,30.4060
2022-12-28T00:23:31.892Z,30.4060
2022-12-28T00:23:42.918Z,30.4010
2022-12-28T00:23:54.027Z,30.3850
2022-12-28T00:24:09.072Z,30.4790
2022-12-28T00:24:20.130Z,30.4310
2022-12-28T00:24:31.190Z,30.3860
2022-12-28T00:24:42.284Z,30.3760
2022-12-28T00:24:53.384Z,30.3600
2022-12-28T00:25:04.583Z,30.3600
2022-12-28T00:25:15.649Z,30.3600
2022-12-28T00:25:26.721Z,30.3220
2022-12-28T00:25:37.804Z,30.2670
2022-12-28T00:25:48.872Z,30.2450
2022-12-28T00:25:59.938Z,30.2460
2022-12-28T00:26:10.992Z,30.2630
2022-12-28T00:26:22.059Z,30.2610
2022-12-28T00:26:33.124Z,30.2670
2022-12-28T00:26:44.200Z,30.2500
2022-12-28T00:26:55.285Z,30.2170
2022-12-28T00:27:06.379Z,30.2110
2022-12-28T00:27:17.444Z,30.2060
2022-12-28T00:27:28.471Z,30.2000
2022-12-28T00:27:39.519Z,30.1880
2022-12-28T00:27:50.606Z,30.1950
2022-12-28T00:28:01.667Z,30.1840
2022-12-28T00:28:12.738Z,30.1950
2022-12-28T00:28:23.809Z,30.2170
2022-12-28T00:28:34.872Z,30.2170
2022-12-28T00:28:45.946Z,30.2170
2022-12-28T00:29:03.713Z,30.2220
2022-12-28T00:29:13.992Z,30.3590
2022-12-28T00:29:25.050Z,30.3340
2022-12-28T00:29:36.109Z,30.2840
2022-12-28T00:29:47.147Z,30.2530
2022-12-28T00:29:58.207Z,30.2480
2022-12-28T00:30:09.283Z,30.2260
2022-12-28T00:30:20.337Z,30.2200
2022-12-28T00:30:31.408Z,30.2100
2022-12-28T00:30:42.468Z,30.2040
2022-12-28T00:30:53.507Z,30.1820
2022-12-28T00:31:04.601Z,30.1770
2022-12-28T00:31:15.706Z,30.1880
2022-12-28T00:31:26.793Z,30.1820
2022-12-28T00:31:37.947Z,30.2040
2022-12-28T00:31:49.060Z,30.1880
2022-12-28T00:32:00.255Z,30.1770
2022-12-28T00:32:11.354Z,30.1880
2022-12-28T00:32:22.421Z,30.1880
2022-12-28T00:32:33.493Z,30.1770
2022-12-28T00:32:44.547Z,30.1880
2022-12-28T00:32:55.627Z,30.1820
2022-12-28T00:33:06.698Z,30.1650
2022-12-28T00:33:17.761Z,30.1650
2022-12-28T00:33:28.841Z,30.1590
2022-12-28T00:33:39.907Z,30.1700
2022-12-28T00:33:50.968Z,30.1650
2022-12-28T00:34:02.055Z,30.1700
2022-12-28T00:34:13.133Z,30.1490
2022-12-28T00:34:24.201Z,30.1270
2022-12-28T00:34:35.280Z,30.1130
2022-12-28T00:34:46.362Z,30.1130
2022-12-28T00:34:57.437Z,30.1020
2022-12-28T00:35:08.509Z,30.0810
2022-12-28T00:35:19.588Z,30.0810
2022-12-28T00:35:30.662Z,30.0770
2022-12-28T00:35:41.733Z,30.0480
2022-12-28T00:35:52.801Z,30.0550
2022-12-28T00:36:03.858Z,30.0370
2022-12-28T00:36:14.911Z,30.0370
2022-12-28T00:37:08.386Z,30.0330
2022-12-28T00:37:10.413Z,30.2580
2022-12-28T00:37:10.747Z,30.1850
2022-12-28T00:37:16.886Z,30.2680
2022-12-28T00:37:27.998Z,30.1410
2022-12-28T00:37:39.067Z,30.0800
2022-12-28T00:37:50.162Z,30.0660
2022-12-28T00:38:01.217Z,30.0660
2022-12-28T00:38:12.279Z,30.0600
2022-12-28T00:38:23.339Z,30.0110
2022-12-28T00:38:34.408Z,29.9880
2022-12-28T00:38:45.471Z,29.9830
2022-12-28T00:38:56.541Z,29.9940
2022-12-28T00:39:07.636Z,30.0280
2022-12-28T00:39:18.708Z,30.0440
2022-12-28T00:39:29.802Z,30.0550
2022-12-28T00:39:40.861Z,30.0490
2022-12-28T00:39:51.915Z,30.0330
2022-12-28T00:40:02.978Z,30.0170
2022-12-28T00:40:17.607Z,30.0330
2022-12-28T00:40:31.013Z,30.1650
2022-12-28T00:40:42.111Z,30.1360
2022-12-28T00:40:53.158Z,30.0930
2022-12-28T00:41:04.236Z,30.0550
2022-12-28T00:41:15.291Z,30.0440
2022-12-28T00:41:26.367Z,30.0330
2022-12-28T00:41:37.452Z,30.0330
2022-12-28T00:41:48.530Z,30.0280
2022-12-28T00:41:59.598Z,30.0250
2022-12-28T00:42:10.637Z,30.0090
2022-12-28T00:42:21.721Z,30.0030
2022-12-28T00:42:32.806Z,29.9980
2022-12-28T00:42:43.876Z,29.9870
2022-12-28T00:42:54.952Z,29.9710
2022-12-28T00:43:06.037Z,29.9600
2022-12-28T00:43:17.110Z,29.9510
2022-12-28T00:43:28.181Z,29.9400
2022-12-28T00:43:39.239Z,29.9350
2022-12-28T00:43:50.308Z,29.9240
2022-12-28T00:44:01.373Z,29.8950
2022-12-28T00:44:12.470Z,29.8990
2022-12-28T00:44:23.538Z,29.9100
2022-12-28T00:44:34.608Z,29.8830
2022-12-28T00:44:45.688Z,29.8830
2022-12-28T00:44:56.719Z,29.8650
2022-12-28T00:45:07.784Z,29.8720
2022-12-28T00:45:18.842Z,29.8780
2022-12-28T00:45:30.018Z,29.8880
2022-12-28T00:45:41.143Z,29.8940
2022-12-28T00:45:52.275Z,29.8720
2022-12-28T00:46:03.444Z,29.8650
2022-12-28T00:46:14.581Z,29.8720
2022-12-28T00:46:25.640Z,29.8440
2022-12-28T00:46:36.713Z,29.8220
2022-12-28T00:46:47.808Z,29.7950
2022-12-28T00:46:58.861Z,29.8110
2022-12-28T00:47:09.938Z,29.8280
2022-12-28T00:47:21.028Z,29.8170
2022-12-28T00:47:32.105Z,29.7720
2022-12-28T00:47:43.169Z,29.7720
2022-12-28T00:47:54.234Z,29.7950
2022-12-28T00:48:05.318Z,29.8060
2022-12-28T00:48:16.390Z,29.7840
2022-12-28T00:48:27.448Z,29.7840
2022-12-28T00:48:38.529Z,29.8060
2022-12-28T00:48:49.607Z,29.8110
2022-12-28T00:49:00.662Z,29.8010
2022-12-28T00:49:11.736Z,29.8110
2022-12-28T00:49:22.800Z,29.8220
2022-12-28T00:49:33.892Z,29.8010
2022-12-28T00:49:44.952Z,29.8010
2022-12-28T00:49:56.020Z,29.7340
2022-12-28T00:50:07.072Z,29.7290
2022-12-28T00:50:18.107Z,29.7450
2022-12-28T00:50:29.204Z,29.7500
2022-12-28T00:50:40.324Z,29.7290
2022-12-28T00:50:51.429Z,29.6840
2022-12-28T00:51:02.478Z,29.6740
2022-12-28T00:51:13.548Z,29.6740
2022-12-28T00:51:24.615Z,29.7070
2022-12-28T00:51:35.671Z,29.7230
2022-12-28T00:51:46.751Z,29.7180
2022-12-28T00:51:57.826Z,29.7070
2022-12-28T00:52:08.902Z,29.7130
2022-12-28T00:52:19.976Z,29.7400
2022-12-28T00:52:31.050Z,29.7560
2022-12-28T00:52:42.102Z,29.7720
2022-12-28T00:52:53.189Z,29.7610
2022-12-28T00:53:04.246Z,29.7780
2022-12-28T00:53:15.327Z,29.7780
2022-12-28T00:53:26.381Z,29.7670
2022-12-28T00:53:37.437Z,29.7950
2022-12-28T00:53:48.492Z,29.7840
2022-12-28T00:53:59.571Z,29.7670
2022-12-28T00:54:10.640Z,29.7750
2022-12-28T00:54:21.704Z,29.7850
2022-12-28T00:54:32.792Z,29.7850
2022-12-28T00:54:43.864Z,29.7850
2022-12-28T00:54:54.928Z,29.7800
2022-12-28T00:55:06.036Z,29.7640
2022-12-28T00:55:17.129Z,29.7520
2022-12-28T00:55:28.232Z,29.7410
2022-12-28T00:55:39.308Z,29.7460
2022-12-28T00:55:50.369Z,29.7520
2022-12-28T00:56:01.436Z,29.7460
2022-12-28T00:56:12.467Z,29.7520
2022-12-28T00:56:23.536Z,29.7520
2022-12-28T00:56:34.630Z,29.7410
2022-12-28T00:56:45.694Z,29.7290
2022-12-28T00:56:56.966Z,29.7400
2022-12-28T00:57:08.065Z,29.7230
2022-12-28T00:57:19.167Z,29.7020
2022-12-28T00:57:30.245Z,29.6950
2022-12-28T00:57:41.302Z,29.6950
2022-12-28T00:57:52.387Z,29.6950
2022-12-28T00:58:03.455Z,29.6840
2022-12-28T00:58:14.529Z,29.6690
2022-12-28T00:58:25.587Z,29.6480
2022-12-28T00:58:36.661Z,29.6370
2022-12-28T00:58:47.762Z,29.6040
2022-12-28T00:58:58.823Z,29.5600
2022-12-28T00:59:09.884Z,29.5220
2022-12-28T00:59:20.947Z,29.5280
2022-12-28T00:59:31.988Z,29.5490
2022-12-28T00:59:43.091Z,29.5540
2022-12-28T00:59:54.194Z,29.6040
2022-12-28T01:00:05.249Z,29.6040
2022-12-28T01:00:16.308Z,29.5990
2022-12-28T01:00:27.376Z,29.5990
2022-12-28T01:00:38.489Z,29.5990
2022-12-28T01:00:49.647Z,29.6260
2022-12-28T01:01:00.859Z,29.6150
2022-12-28T01:01:12.238Z,29.6260
2022-12-28T01:01:23.494Z,29.6310
2022-12-28T01:01:34.755Z,29.6530
2022-12-28T01:01:46.196Z,29.6530
2022-12-28T01:01:57.383Z,29.6570
2022-12-28T01:02:08.635Z,29.6410
2022-12-28T01:02:19.802Z,29.6460
2022-12-28T01:02:30.910Z,29.6150
2022-12-28T01:02:42.053Z,29.6150
2022-12-28T01:02:53.132Z,29.6150
2022-12-28T01:03:04.361Z,29.6210
2022-12-28T01:03:15.506Z,29.6260
2022-12-28T01:03:26.556Z,29.6300
2022-12-28T01:03:37.628Z,29.5910
2022-12-28T01:03:48.690Z,29.5860
2022-12-28T01:03:59.747Z,29.5700
2022-12-28T01:04:10.819Z,29.5750
2022-12-28T01:04:22.085Z,29.5640
2022-12-28T01:04:33.166Z,29.5640
2022-12-28T01:04:44.278Z,29.5700
2022-12-28T01:04:55.338Z,29.5750
2022-12-28T01:05:06.401Z,29.5800
2022-12-28T01:05:17.473Z,29.5700
2022-12-28T01:05:28.517Z,29.5750
2022-12-28T01:05:39.589Z,29.5750
2022-12-28T01:05:50.648Z,29.5710
2022-12-28T01:06:01.687Z,29.5540
2022-12-28T01:06:12.765Z,29.5490
2022-12-28T01:06:23.831Z,29.5440
2022-12-28T01:06:34.935Z,29.5490
2022-12-28T01:06:45.987Z,29.5540
2022-12-28T01:06:57.037Z,29.5490
2022-12-28T01:07:08.107Z,29.5280
2022-12-28T01:07:19.167Z,29.5220
2022-12-28T01:07:30.235Z,29.5330
2022-12-28T01:07:41.308Z,29.5050
2022-12-28T01:07:52.372Z,29.5220
2022-12-28T01:08:03.435Z,29.5110
2022-12-28T01:08:14.517Z,29.5220
2022-12-28T01:08:25.589Z,29.5110
2022-12-28T01:08:36.650Z,29.5050
2022-12-28T01:08:47.763Z,29.4940
2022-12-28T01:08:58.813Z,29.4940
2022-12-28T01:09:09.881Z,29.4670
2022-12-28T01:09:20.962Z,29.4510
2022-12-28T01:09:32.004Z,29.4510
2022-12-28T01:09:43.062Z,29.3900
2022-12-28T01:09:54.181Z,29.3680
2022-12-28T01:10:05.247Z,29.3190
2022-12-28T01:10:16.313Z,29.2860
2022-12-28T01:10:27.383Z,29.2750
2022-12-28T01:10:38.441Z,29.2420
2022-12-28T01:10:49.520Z,29.2650
2022-12-28T01:11:00.588Z,29.2750
2022-12-28T01:11:11.650Z,29.2750
2022-12-28T01:11:22.709Z,29.2810
2022-12-28T01:11:33.794Z,29.2590
2022-12-28T01:11:44.859Z,29.3080
2022-12-28T01:11:55.916Z,29.3630
2022-12-28T01:12:06.977Z,29.3850
2022-12-28T01:12:18.039Z,29.3850
2022-12-28T01:12:34.621Z,29.3850
2022-12-28T01:12:46.064Z,29.5360
2022-12-28T01:12:57.131Z,29.5200
2022-12-28T01:13:08.241Z,29.4810
2022-12-28T01:13:19.326Z,29.4480
2022-12-28T01:13:30.398Z,29.4480
2022-12-28T01:13:41.445Z,29.4430
2022-12-28T01:13:52.541Z,29.4320
2022-12-28T01:14:03.597Z,29.4320
2022-12-28T01:14:14.662Z,29.4480
2022-12-28T01:14:25.735Z,29.4600
2022-12-28T01:14:36.791Z,29.4370
2022-12-28T01:14:47.868Z,29.4260
2022-12-28T01:14:59.094Z,29.4320
2022-12-28T01:15:10.148Z,29.4260
2022-12-28T01:15:21.228Z,29.4370
2022-12-28T01:15:32.301Z,29.4160
2022-12-28T01:15:43.374Z,29.4050
2022-12-28T01:15:54.449Z,29.4050
2022-12-28T01:16:05.552Z,29.4210
2022-12-28T01:16:16.730Z,29.4170
2022-12-28T01:16:27.932Z,29.4010
2022-12-28T01:16:39.110Z,29.4050
2022-12-28T01:16:50.290Z,29.3950
2022-12-28T01:17:03.461Z,29.4650
2022-12-28T01:17:15.311Z,29.4600
2022-12-28T01:17:26.390Z,29.4260
2022-12-28T01:17:37.477Z,29.3940
2022-12-28T01:17:48.528Z,29.3830
2022-12-28T01:17:59.606Z,29.3440
2022-12-28T01:18:10.668Z,29.3390
2022-12-28T01:18:23.800Z,29.3990
2022-12-28T01:18:34.862Z,29.3780
2022-12-28T01:18:45.952Z,29.3600
2022-12-28T01:18:57.052Z,29.3550
2022-12-28T01:19:08.175Z,29.3330
2022-12-28T01:19:19.304Z,29.3440
2022-12-28T01:19:30.383Z,29.3290
2022-12-28T01:19:41.455Z,29.3240
2022-12-28T01:19:54.179Z,29.2750
2022-12-28T01:20:05.607Z,29.2910
2022-12-28T01:20:16.679Z,29.2460
2022-12-28T01:20:27.757Z,29.2470
2022-12-28T01:20:38.897Z,29.2470
2022-12-28T01:20:49.951Z,29.2700
2022-12-28T01:21:01.034Z,29.2700
2022-12-28T01:21:12.075Z,29.2530
2022-12-28T01:21:23.157Z,29.2470
2022-12-28T01:21:34.218Z,29.2150
2022-12-28T01:21:45.277Z,29.1990
2022-12-28T01:21:56.317Z,29.1990
2022-12-28T01:22:07.376Z,29.2090
2022-12-28T01:22:18.443Z,29.2200
2022-12-28T01:22:29.507Z,29.2200
2022-12-28T01:22:40.577Z,29.2040
2022-12-28T01:22:51.661Z,29.1930
2022-12-28T01:23:02.762Z,29.1600
2022-12-28T01:23:13.878Z,29.1440
2022-12-28T01:23:24.982Z,29.0950
2022-12-28T01:23:36.027Z,29.0780
2022-12-28T01:23:47.109Z,29.0620
2022-12-28T01:23:58.144Z,29.0720
2022-12-28T01:24:09.201Z,29.1110
2022-12-28T01:24:20.280Z,29.1310
2022-12-28T01:24:31.343Z,29.1310
2022-12-28T01:24:42.401Z,29.1210
2022-12-28T01:24:53.479Z,29.1140
2022-12-28T01:25:04.829Z,29.1090
2022-12-28T01:25:15.977Z,29.0930
2022-12-28T01:25:27.029Z,29.0710
2022-12-28T01:25:38.115Z,29.0670
2022-12-28T01:25:49.199Z,29.0670
2022-12-28T01:26:00.251Z,29.0930
2022-12-28T01:26:11.331Z,29.1330
2022-12-28T01:26:22.407Z,29.1380
2022-12-28T01:26:33.482Z,29.1330
2022-12-28T01:26:44.536Z,29.1440
2022-12-28T01:26:55.619Z,29.1490
2022-12-28T01:27:06.687Z,29.1540
2022-12-28T01:27:17.727Z,29.1380
2022-12-28T01:27:28.824Z,29.1440
2022-12-28T01:27:39.856Z,29.1490
2022-12-28T01:27:50.922Z,29.1490
2022-12-28T01:28:01.988Z,29.1540
2022-12-28T01:28:13.058Z,29.1540
2022-12-28T01:28:24.139Z,29.1540
2022-12-28T01:28:35.242Z,29.1700
2022-12-28T01:28:46.327Z,29.1650
2022-12-28T01:28:57.374Z,29.1700
2022-12-28T01:29:08.436Z,29.1600
2022-12-28T01:29:19.492Z,29.1700
2022-12-28T01:29:30.574Z,29.1700
2022-12-28T01:29:41.642Z,29.1700
2022-12-28T01:29:52.707Z,29.1640
2022-12-28T01:30:03.831Z,29.1640
2022-12-28T01:30:14.870Z,29.1850
2022-12-28T01:30:25.963Z,29.1750
2022-12-28T01:30:38.864Z,29.1580
2022-12-28T01:30:50.326Z,29.2460
2022-12-28T01:31:01.420Z,29.2240
2022-12-28T01:31:12.506Z,29.2030
2022-12-28T01:31:23.626Z,29.2080
2022-12-28T01:31:34.741Z,29.1910
2022-12-28T01:31:45.851Z,29.1880
2022-12-28T01:31:56.961Z,29.1600
2022-12-28T01:32:08.138Z,29.1490
2022-12-28T01:32:19.261Z,29.1600
2022-12-28T01:32:30.304Z,29.1490
2022-12-28T01:32:41.393Z,29.1330
2022-12-28T01:32:52.458Z,29.1220
2022-12-28T01:33:03.496Z,29.1160
2022-12-28T01:33:14.560Z,29.1110
2022-12-28T01:33:25.667Z,29.1060
2022-12-28T01:33:36.717Z,29.1000
2022-12-28T01:33:47.762Z,29.0950
2022-12-28T01:33:58.828Z,29.0950
2022-12-28T01:34:09.887Z,29.0950
2022-12-28T01:34:20.947Z,29.0820
2022-12-28T01:34:32.018Z,29.0760
2022-12-28T01:34:43.097Z,29.0710
2022-12-28T01:34:54.157Z,29.0710
2022-12-28T01:35:05.201Z,29.0760
2022-12-28T01:35:16.275Z,29.0870
2022-12-28T01:35:27.362Z,29.0450
2022-12-28T01:35:38.427Z,28.9960
2022-12-28T01:35:49.518Z,29.0180
2022-12-28T01:36:00.593Z,29.0240
2022-12-28T01:36:11.667Z,29.0400
2022-12-28T01:36:22.727Z,29.0340
2022-12-28T01:36:33.820Z,29.0240
2022-12-28T01:36:44.913Z,29.0240
2022-12-28T01:36:55.982Z,29.0290
2022-12-28T01:37:07.056Z,29.0260
2022-12-28T01:37:18.106Z,29.0210
2022-12-28T01:37:29.176Z,29.0390
2022-12-28T01:37:40.231Z,29.0260
2022-12-28T01:37:51.281Z,29.0260
2022-12-28T01:38:02.370Z,29.0210
2022-12-28T01:38:13.458Z,29.0210
2022-12-28T01:38:24.520Z,29.0100
2022-12-28T01:38:35.595Z,29.0050
2022-12-28T01:38:46.650Z,29.0100
2022-12-28T01:38:57.750Z,29.0210
2022-12-28T01:39:08.809Z,29.0000
2022-12-28T01:39:19.880Z,28.9570
2022-12-28T01:39:30.958Z,28.9730
2022-12-28T01:39:42.066Z,29.0210
2022-12-28T01:39:53.145Z,29.0390
2022-12-28T01:40:04.202Z,29.0440
2022-12-28T01:40:15.286Z,29.0390
2022-12-28T01:40:26.376Z,29.0390
2022-12-28T01:40:37.501Z,29.0440
2022-12-28T01:40:48.581Z,29.0320
2022-12-28T01:40:59.648Z,29.0440
2022-12-28T01:41:10.711Z,29.0320
2022-12-28T01:41:21.789Z,29.0260
2022-12-28T01:41:32.868Z,29.0100
2022-12-28T01:41:43.939Z,28.9830
2022-12-28T01:41:55.017Z,28.9780
2022-12-28T01:42:06.136Z,28.9890
2022-12-28T01:42:17.711Z,29.0260
2022-12-28T01:42:28.813Z,29.0260
2022-12-28T01:42:39.881Z,29.0050
2022-12-28T01:42:50.986Z,29.0340
2022-12-28T01:43:02.039Z,29.0340
2022-12-28T01:43:13.124Z,29.0400
2022-12-28T01:43:29.404Z,29.0240
2022-12-28T01:43:41.155Z,29.1580
2022-12-28T01:43:52.243Z,29.1210
2022-12-28T01:44:03.361Z,29.0710
2022-12-28T01:44:14.478Z,29.0260
2022-12-28T01:44:25.561Z,28.9890
2022-12-28T01:44:36.640Z,28.9830
2022-12-28T01:44:47.727Z,28.9960
2022-12-28T01:44:58.792Z,28.9900
2022-12-28T01:45:09.866Z,28.9530
2022-12-28T01:45:20.909Z,28.9260
2022-12-28T01:45:32.055Z,28.9360
2022-12-28T01:45:43.201Z,28.9580
2022-12-28T01:45:54.432Z,28.9580
2022-12-28T01:46:05.550Z,28.9470
2022-12-28T01:46:16.672Z,28.9340
2022-12-28T01:46:27.721Z,28.9310
2022-12-28T01:46:38.797Z,28.9140
2022-12-28T01:46:49.908Z,28.9080
2022-12-28T01:47:00.953Z,28.9080
2022-12-28T01:47:12.056Z,28.8690
2022-12-28T01:47:23.109Z,28.8200
2022-12-28T01:47:34.159Z,28.7930
2022-12-28T01:47:45.225Z,28.7870
2022-12-28T01:47:56.285Z,28.7810
2022-12-28T01:48:07.343Z,28.7780
2022-12-28T01:48:18.404Z,28.7810
2022-12-28T01:48:29.471Z,28.7980
2022-12-28T01:48:40.558Z,28.7870
2022-12-28T01:48:51.600Z,28.7980
2022-12-28T01:49:02.684Z,28.7930
2022-12-28T01:49:13.742Z,28.7930
2022-12-28T01:49:24.824Z,28.8300
2022-12-28T01:49:35.876Z,28.8690
2022-12-28T01:49:46.954Z,28.8850
2022-12-28T01:49:58.021Z,28.9020
2022-12-28T01:50:09.106Z,28.9020
2022-12-28T01:50:20.206Z,28.9020
2022-12-28T01:50:31.251Z,28.9020
2022-12-28T01:50:42.325Z,28.8750
2022-12-28T01:50:53.427Z,28.8750
2022-12-28T01:51:04.496Z,28.8570
2022-12-28T01:51:15.587Z,28.8410
2022-12-28T01:51:26.656Z,28.8100
2022-12-28T01:51:37.701Z,28.8160
2022-12-28T01:51:48.798Z,28.8000
2022-12-28T01:51:59.858Z,28.8050
2022-12-28T01:52:10.945Z,28.8000
2022-12-28T01:52:22.005Z,28.8100
2022-12-28T01:52:33.084Z,28.8260
2022-12-28T01:52:44.161Z,28.8600
2022-12-28T01:52:55.239Z,28.8690
2022-12-28T01:53:06.327Z,28.8690
2022-12-28T01:53:17.447Z,28.8570
2022-12-28T01:53:28.528Z,28.8750
2022-12-28T01:53:39.588Z,28.8910
2022-12-28T01:53:50.656Z,28.8800
2022-12-28T01:54:01.717Z,28.8800
2022-12-28T01:54:12.798Z,28.8750
2022-12-28T01:54:23.860Z,28.8760
2022-12-28T01:54:34.945Z,28.8650
2022-12-28T01:54:46.005Z,28.8600
2022-12-28T01:54:57.086Z,28.8760
2022-12-28T01:55:08.148Z,28.8650
2022-12-28T01:55:19.223Z,28.8540
2022-12-28T01:55:30.318Z,28.8600
2022-12-28T01:55:41.393Z,28.8440
2022-12-28T01:55:52.458Z,28.8600
2022-12-28T01:56:03.551Z,28.8760
2022-12-28T01:56:14.613Z,28.9080
2022-12-28T01:56:25.657Z,28.9140
2022-12-28T01:56:36.723Z,28.8810
2022-12-28T01:56:47.815Z,28.8870
2022-12-28T01:56:58.867Z,28.8650
2022-12-28T01:57:09.919Z,28.8210
2022-12-28T01:57:21.000Z,28.8050
2022-12-28T01:57:32.068Z,28.7670
2022-12-28T01:57:43.128Z,28.7070
2022-12-28T01:57:54.196Z,28.6750
2022-12-28T01:58:05.257Z,28.7070
2022-12-28T01:58:16.335Z,28.7390
2022-12-28T01:58:27.415Z,28.7440
2022-12-28T01:58:38.477Z,28.7120
2022-12-28T01:58:49.546Z,28.6960
2022-12-28T01:59:00.613Z,28.6910
2022-12-28T01:59:11.684Z,28.6940
2022-12-28T01:59:22.761Z,28.7210
2022-12-28T01:59:33.830Z,28.7700
2022-12-28T01:59:44.907Z,28.7930
2022-12-28T01:59:55.988Z,28.7870
2022-12-28T02:00:07.045Z,28.8090
2022-12-28T02:00:18.122Z,28.8250
2022-12-28T02:00:29.203Z,28.7870
2022-12-28T02:00:40.271Z,28.7430
2022-12-28T02:00:51.421Z,28.7270
2022-12-28T02:01:02.569Z,28.7480
2022-12-28T02:01:13.895Z,28.7540
2022-12-28T02:01:25.185Z,28.8030
2022-12-28T02:01:36.460Z,28.8090
2022-12-28T02:01:47.663Z,28.8140
2022-12-28T02:01:58.954Z,28.7980
2022-12-28T02:02:10.361Z,28.7980
2022-12-28T02:02:21.767Z,28.8140
2022-12-28T02:02:33.286Z,28.8140
2022-12-28T02:02:44.658Z,28.8090
2022-12-28T02:02:55.902Z,28.8250
2022-12-28T02:03:07.037Z,28.8030
2022-12-28T02:03:18.102Z,28.7930
2022-12-28T02:03:29.216Z,28.7750
2022-12-28T02:03:40.282Z,28.7650
2022-12-28T02:03:51.346Z,28.7270
2022-12-28T02:04:02.416Z,28.6940
2022-12-28T02:04:13.864Z,28.7010
2022-12-28T02:04:24.936Z,28.7230
2022-12-28T02:04:36.013Z,28.7120
2022-12-28T02:04:47.065Z,28.6680
2022-12-28T02:04:58.132Z,28.6290
2022-12-28T02:05:09.187Z,28.6290
2022-12-28T02:05:20.256Z,28.6500
2022-12-28T02:05:31.326Z,28.6830
2022-12-28T02:05:42.413Z,28.7110
2022-12-28T02:05:53.486Z,28.7160
2022-12-28T02:06:04.555Z,28.7050
2022-12-28T02:06:18.038Z,28.7700
2022-12-28T02:06:29.078Z,28.7590
2022-12-28T02:06:40.174Z,28.7700
2022-12-28T02:06:51.261Z,28.7700
2022-12-28T02:07:02.366Z,28.7750
2022-12-28T02:07:13.403Z,28.7750
2022-12-28T02:07:24.467Z,28.7810
2022-12-28T02:07:35.533Z,28.7870
2022-12-28T02:07:46.612Z,28.7750
2022-12-28T02:07:57.696Z,28.7750
2022-12-28T02:08:08.771Z,28.7750
2022-12-28T02:08:19.860Z,28.7540
2022-12-28T02:08:30.911Z,28.7650
2022-12-28T02:08:42.003Z,28.7650
2022-12-28T02:08:53.071Z,28.7430
2022-12-28T02:09:04.135Z,28.7320
2022-12-28T02:09:15.207Z,28.7430
2022-12-28T02:09:26.290Z,28.7380
2022-12-28T02:09:37.357Z,28.7430
2022-12-28T02:10:42.295Z,28.7380
2022-12-28T02:10:42.447Z,28.8920
2022-12-28T02:10:43.685Z,28.8720
2022-12-28T02:10:44.000Z,28.8250
2022-12-28T02:10:56.307Z,28.8950
2022-12-28T02:11:07.379Z,28.8030
2022-12-28T02:11:18.467Z,28.7440
2022-12-28T02:11:29.580Z,28.6870
2022-12-28T02:11:40.631Z,28.6340
2022-12-28T02:11:51.707Z,28.6670
2022-12-28T02:12:02.794Z,28.6990
2022-12-28T02:12:13.887Z,28.7050
2022-12-28T02:12:24.932Z,28.6990
2022-12-28T02:12:36.108Z,28.6940
2022-12-28T02:12:47.241Z,28.6830
2022-12-28T02:12:58.460Z,28.6670
2022-12-28T02:13:09.586Z,28.6770
2022-12-28T02:13:20.659Z,28.6670
2022-12-28T02:13:31.735Z,28.6500
2022-12-28T02:13:42.811Z,28.6290
2022-12-28T02:13:53.888Z,28.6120
2022-12-28T02:14:04.928Z,28.5850
2022-12-28T02:14:16.017Z,28.5690
2022-12-28T02:14:27.084Z,28.5470
2022-12-28T02:14:38.169Z,28.5420
2022-12-28T02:14:49.245Z,28.5420
2022-12-28T02:15:00.340Z,28.5370
2022-12-28T02:15:11.385Z,28.5420
2022-12-28T02:15:23.380Z,28.5630
2022-12-28T02:15:34.768Z,28.6010
2022-12-28T02:15:45.881Z,28.6240